createdAt,value
2018-08-27T00:02:13.633Z,99.90
2018-08-27T00:04:41.265Z,99.90
2018-08-27T00:07:08.884Z,99.90
2018-08-27T00:09:37.532Z,99.90
2018-08-27T00:12:05.173Z,99.90
2018-08-27T00:14:32.793Z,99.90
2018-08-27T00:17:00.409Z,99.90
2018-08-27T00:19:28.340Z,99.90
2018-08-27T00:21:56.258Z,99.90
2018-08-27T00:24:23.929Z,99.90
2018-08-27T00:26:51.568Z,99.90
2018-08-27T00:29:19.732Z,99.90
2018-08-27T00:31:47.340Z,99.90
2018-08-27T00:34:14.961Z,99.90
2018-08-27T00:36:42.604Z,99.90
2018-08-27T00:39:11.766Z,99.90
2018-08-27T00:41:39.437Z,99.90
2018-08-27T00:44:07.090Z,99.90
2018-08-27T00:46:34.724Z,99.90
2018-08-27T00:49:02.596Z,99.90
2018-08-27T00:51:30.329Z,99.90
2018-08-27T00:53:57.981Z,99.90
2018-08-27T00:56:26.335Z,99.90
2018-08-27T00:58:54.040Z,99.90
2018-08-27T01:01:21.698Z,99.90
2018-08-27T01:03:49.439Z,99.90
2018-08-27T01:06:23.291Z,99.90
2018-08-27T01:08:51.111Z,99.90
2018-08-27T01:11:18.917Z,99.90
2018-08-27T01:13:47.670Z,99.90
2018-08-27T01:16:15.397Z,99.90
2018-08-27T01:18:43.051Z,99.90
2018-08-27T01:21:10.929Z,99.90
2018-08-27T01:23:38.669Z,99.90
2018-08-27T01:26:12.119Z,99.90
2018-08-27T01:28:39.735Z,99.90
2018-08-27T01:31:07.360Z,99.90
2018-08-27T01:33:35.000Z,99.90
2018-08-27T01:36:02.620Z,99.90
2018-08-27T01:38:30.301Z,99.90
2018-08-27T01:40:57.985Z,99.90
2018-08-27T01:43:25.628Z,99.90
2018-08-27T01:45:53.368Z,99.90
2018-08-27T01:48:21.012Z,99.90
2018-08-27T01:50:48.653Z,99.90
2018-08-27T01:53:16.273Z,99.90
2018-08-27T01:55:43.945Z,99.90
2018-08-27T01:58:11.628Z,99.90
2018-08-27T02:00:40.236Z,99.90
2018-08-27T02:03:07.864Z,99.90
2018-08-27T02:05:35.492Z,99.90
2018-08-27T02:08:03.148Z,99.90
2018-08-27T02:10:30.783Z,99.90
2018-08-27T02:12:58.449Z,99.90
2018-08-27T02:15:26.716Z,99.90
2018-08-27T02:17:54.379Z,99.90
2018-08-27T02:20:22.500Z,99.90
2018-08-27T02:22:50.188Z,99.90
2018-08-27T02:25:17.816Z,99.90
2018-08-27T02:27:46.028Z,99.90
2018-08-27T02:30:13.662Z,99.90
2018-08-27T02:32:41.307Z,99.90
2018-08-27T02:35:10.048Z,99.90
2018-08-27T02:37:37.727Z,99.90
2018-08-27T02:40:05.428Z,99.90
2018-08-27T02:42:33.048Z,99.90
2018-08-27T02:45:00.673Z,99.90
2018-08-27T02:47:28.803Z,99.90
2018-08-27T02:49:56.416Z,99.90
2018-08-27T02:52:24.061Z,99.90
2018-08-27T02:54:51.689Z,99.90
2018-08-27T02:57:19.402Z,99.90
2018-08-27T02:59:47.044Z,99.90
2018-08-27T03:02:14.704Z,99.90
2018-08-27T03:04:42.337Z,99.90
2018-08-27T03:07:09.936Z,99.90
2018-08-27T03:09:37.709Z,99.90
2018-08-27T03:12:05.340Z,99.90
2018-08-27T03:14:33.008Z,99.90
2018-08-27T03:17:00.667Z,99.90
2018-08-27T03:19:28.307Z,99.90
2018-08-27T03:21:55.948Z,99.90
2018-08-27T03:24:23.597Z,99.90
2018-08-27T03:26:51.212Z,99.90
2018-08-27T03:29:18.832Z,99.90
2018-08-27T03:31:48.841Z,99.90
2018-08-27T03:34:16.501Z,99.90
2018-08-27T03:36:44.196Z,99.90
2018-08-27T03:39:12.216Z,99.90
2018-08-27T03:41:40.088Z,99.90
2018-08-27T03:44:08.853Z,99.90
2018-08-27T03:46:36.477Z,99.90
2018-08-27T03:49:04.154Z,99.90
2018-08-27T03:51:31.777Z,99.90
2018-08-27T03:53:59.413Z,99.90
2018-08-27T03:56:27.062Z,99.90
2018-08-27T03:58:54.679Z,99.90
2018-08-27T04:01:22.873Z,99.90
2018-08-27T04:03:50.980Z,99.90
2018-08-27T04:06:18.648Z,99.90
2018-08-27T04:08:46.300Z,99.90
2018-08-27T04:11:13.941Z,99.90
2018-08-27T04:13:41.582Z,99.90
2018-08-27T04:16:09.245Z,99.90
2018-08-27T04:18:36.850Z,99.90
2018-08-27T04:21:04.481Z,99.90
2018-08-27T04:23:32.108Z,99.90
2018-08-27T04:25:59.740Z,99.90
2018-08-27T04:28:27.404Z,99.90
2018-08-27T04:30:55.020Z,99.90
2018-08-27T04:33:22.661Z,99.90
2018-08-27T04:35:50.302Z,99.90
2018-08-27T04:38:17.905Z,99.90
2018-08-27T04:40:45.538Z,99.90
2018-08-27T04:43:13.884Z,99.90
2018-08-27T04:45:41.530Z,99.90
2018-08-27T04:48:09.229Z,99.90
2018-08-27T04:50:36.892Z,99.90
2018-08-27T04:53:04.596Z,99.90
2018-08-27T04:55:32.248Z,99.90
2018-08-27T04:57:59.884Z,99.90
2018-08-27T05:00:28.601Z,99.90
2018-08-27T05:02:56.605Z,99.90
2018-08-27T05:05:24.270Z,99.90
2018-08-27T05:07:52.228Z,99.90
2018-08-27T05:10:19.885Z,99.90
2018-08-27T05:12:47.531Z,99.90
2018-08-27T05:15:15.443Z,99.90
2018-08-27T05:17:43.097Z,99.90
2018-08-27T05:20:10.753Z,99.90
2018-08-27T05:22:38.437Z,99.90
2018-08-27T05:25:06.125Z,99.90
2018-08-27T05:27:33.741Z,99.90
2018-08-27T05:30:01.388Z,99.90
2018-08-27T05:32:29.009Z,99.90
2018-08-27T05:34:56.645Z,99.90
2018-08-27T05:37:24.271Z,99.90
2018-08-27T05:39:51.947Z,99.90
2018-08-27T05:42:19.589Z,99.90
2018-08-27T05:44:47.257Z,99.90
2018-08-27T05:47:14.951Z,99.90
2018-08-27T05:49:42.673Z,99.90
2018-08-27T05:52:10.381Z,99.90
2018-08-27T05:54:37.964Z,99.90
2018-08-27T05:57:05.678Z,99.90
2018-08-27T05:59:33.305Z,99.90
2018-08-27T06:02:01.056Z,99.90
2018-08-27T06:04:28.690Z,99.90
2018-08-27T06:06:56.487Z,99.90
2018-08-27T06:09:24.117Z,99.90
2018-08-27T06:11:51.776Z,99.90
2018-08-27T06:14:19.404Z,99.90
2018-08-27T06:16:47.269Z,99.90
2018-08-27T06:19:14.919Z,99.90
2018-08-27T06:21:42.528Z,99.90
2018-08-27T06:24:10.153Z,99.90
2018-08-27T06:26:37.784Z,99.90
2018-08-27T06:29:05.467Z,99.90
2018-08-27T06:31:33.097Z,99.90
2018-08-27T06:34:00.744Z,99.90
2018-08-27T06:36:28.369Z,99.90
2018-08-27T06:38:56.025Z,99.90
2018-08-27T06:41:23.637Z,99.90
2018-08-27T06:43:51.232Z,99.90
2018-08-27T06:46:18.917Z,99.90
2018-08-27T06:48:46.533Z,99.90
2018-08-27T06:51:14.148Z,99.90
2018-08-27T06:53:41.781Z,99.90
2018-08-27T06:56:09.404Z,99.90
2018-08-27T06:58:37.013Z,99.90
2018-08-27T07:01:04.665Z,99.90
2018-08-27T07:03:32.313Z,99.90
2018-08-27T07:05:59.955Z,99.90
2018-08-27T07:08:27.585Z,99.90
2018-08-27T07:10:56.208Z,99.90
2018-08-27T07:13:24.896Z,99.90
2018-08-27T07:15:52.529Z,99.90
2018-08-27T07:18:20.153Z,99.90
2018-08-27T07:20:47.831Z,99.90
2018-08-27T07:23:15.460Z,99.90
2018-08-27T07:25:44.368Z,99.90
2018-08-27T07:28:12.007Z,99.90
2018-08-27T07:30:39.645Z,99.90
2018-08-27T07:33:07.269Z,99.90
2018-08-27T07:35:34.925Z,99.90
2018-08-27T07:38:03.645Z,99.90
2018-08-27T07:40:32.757Z,99.90
2018-08-27T07:43:00.950Z,99.90
2018-08-27T07:45:28.580Z,99.90
2018-08-27T07:47:56.203Z,99.90
2018-08-27T07:50:23.820Z,99.90
2018-08-27T07:52:51.468Z,99.90
2018-08-27T07:55:19.107Z,99.90
2018-08-27T07:57:46.741Z,99.90
2018-08-27T08:00:20.116Z,99.90
2018-08-27T08:02:47.896Z,99.90
2018-08-27T08:05:15.560Z,99.90
2018-08-27T08:07:43.204Z,99.90
2018-08-27T08:10:10.852Z,99.90
2018-08-27T08:12:38.564Z,99.90
2018-08-27T08:15:06.330Z,99.90
2018-08-27T08:17:33.982Z,99.90
2018-08-27T08:20:01.608Z,99.90
2018-08-27T08:22:29.224Z,99.90
2018-08-27T08:24:56.848Z,99.90
2018-08-27T08:27:24.469Z,99.90
2018-08-27T08:29:52.096Z,99.90
2018-08-27T08:32:19.708Z,99.90
2018-08-27T08:34:47.357Z,99.90
2018-08-27T08:37:14.993Z,99.90
2018-08-27T08:39:42.651Z,99.90
2018-08-27T08:42:10.323Z,99.90
2018-08-27T08:44:37.962Z,99.90
2018-08-27T08:47:05.569Z,99.90
2018-08-27T08:49:33.210Z,99.90
2018-08-27T08:52:01.056Z,99.30
2018-08-27T08:54:28.821Z,97.30
2018-08-27T08:56:56.529Z,97.50
2018-08-27T08:59:24.181Z,99.60
2018-08-27T09:01:51.829Z,97.90
2018-08-27T09:04:19.443Z,97.70
2018-08-27T09:06:48.084Z,98.30
2018-08-27T09:09:15.725Z,98.40
2018-08-27T09:11:43.329Z,99.30
2018-08-27T09:14:10.977Z,99.30
2018-08-27T09:16:38.596Z,96.00
2018-08-27T09:19:06.241Z,96.60
2018-08-27T09:21:33.877Z,96.20
2018-08-27T09:24:01.514Z,95.70
2018-08-27T09:26:29.141Z,96.60
2018-08-27T09:28:56.776Z,95.50
2018-08-27T09:31:25.441Z,92.40
2018-08-27T09:33:53.052Z,93.50
2018-08-27T09:36:20.651Z,95.90
2018-08-27T09:38:48.314Z,93.60
2018-08-27T09:41:16.628Z,93.10
2018-08-27T09:43:44.269Z,94.50
2018-08-27T09:46:11.877Z,92.90
2018-08-27T09:48:39.497Z,95.60
2018-08-27T09:51:07.142Z,92.60
2018-08-27T09:53:34.741Z,89.70
2018-08-27T09:56:02.377Z,90.40
2018-08-27T09:58:29.977Z,92.00
2018-08-27T10:01:03.190Z,90.80
2018-08-27T10:03:30.800Z,87.60
2018-08-27T10:05:58.410Z,90.90
2018-08-27T10:08:26.025Z,90.00
2018-08-27T10:10:53.636Z,85.60
2018-08-27T10:13:21.272Z,86.30
2018-08-27T10:15:48.883Z,86.60
2018-08-27T10:18:16.612Z,83.30
2018-08-27T10:20:44.333Z,83.60
2018-08-27T10:23:12.964Z,87.60
2018-08-27T10:25:40.588Z,85.40
2018-08-27T10:28:08.261Z,84.30
2018-08-27T10:30:35.865Z,83.40
2018-08-27T10:33:03.492Z,85.20
2018-08-27T10:35:31.129Z,85.60
2018-08-27T10:37:58.727Z,83.80
2018-08-27T10:40:26.376Z,88.30
2018-08-27T10:42:54.124Z,78.50
2018-08-27T10:45:21.680Z,80.50
2018-08-27T10:47:49.311Z,81.10
2018-08-27T10:50:17.022Z,81.70
2018-08-27T10:52:44.593Z,82.30
2018-08-27T10:55:12.193Z,84.20
2018-08-27T10:57:39.912Z,79.30
2018-08-27T11:00:07.608Z,80.40
2018-08-27T11:02:35.229Z,78.10
2018-08-27T11:05:02.988Z,80.00
2018-08-27T11:07:30.585Z,82.30
2018-08-27T11:09:59.202Z,80.90
2018-08-27T11:12:26.805Z,79.30
2018-08-27T11:14:54.469Z,79.80
2018-08-27T11:17:22.612Z,75.00
2018-08-27T11:22:23.457Z,79.50
2018-08-27T11:24:51.101Z,83.20
2018-08-27T11:27:18.733Z,75.80
2018-08-27T11:29:46.370Z,77.50
2018-08-27T11:32:13.956Z,79.20
2018-08-27T11:34:42.565Z,77.90
2018-08-27T11:37:10.157Z,74.80
2018-08-27T11:39:37.776Z,73.70
2018-08-27T11:42:05.412Z,71.00
2018-08-27T11:44:33.022Z,72.50
2018-08-27T11:47:00.662Z,68.50
2018-08-27T11:49:28.265Z,70.00
2018-08-27T11:51:55.865Z,73.10
2018-08-27T11:54:23.501Z,71.20
2018-08-27T11:56:51.157Z,70.50
2018-08-27T11:59:18.952Z,69.50
2018-08-27T12:01:46.765Z,70.70
2018-08-27T12:04:15.516Z,68.90
2018-08-27T12:06:43.141Z,72.90
2018-08-27T12:09:10.813Z,68.70
2018-08-27T12:11:39.400Z,66.60
2018-08-27T12:14:07.273Z,62.40
2018-08-27T12:16:34.900Z,61.40
2018-08-27T12:19:02.658Z,59.50
2018-08-27T12:21:30.297Z,60.00
2018-08-27T12:23:58.007Z,59.40
2018-08-27T12:26:25.880Z,57.50
2018-08-27T12:28:53.483Z,56.60
2018-08-27T12:31:21.076Z,55.30
2018-08-27T12:33:48.700Z,56.60
2018-08-27T12:36:16.331Z,58.60
2018-08-27T12:38:43.985Z,56.10
2018-08-27T12:41:11.697Z,57.20
2018-08-27T12:43:39.403Z,50.60
2018-08-27T12:46:06.985Z,50.70
2018-08-27T12:48:34.601Z,47.60
2018-08-27T12:51:02.331Z,49.20
2018-08-27T12:53:29.828Z,46.50
2018-08-27T12:55:57.459Z,45.30
2018-08-27T12:58:25.135Z,47.10
2018-08-27T13:00:52.764Z,43.70
2018-08-27T13:03:20.401Z,47.00
2018-08-27T13:05:48.062Z,42.90
2018-08-27T13:08:15.731Z,41.00
2018-08-27T13:10:43.285Z,40.50
2018-08-27T13:13:10.910Z,41.20
2018-08-27T13:15:38.606Z,39.40
2018-08-27T13:18:06.269Z,43.20
2018-08-27T13:20:33.893Z,37.00
2018-08-27T13:23:01.519Z,37.90
2018-08-27T13:25:29.173Z,38.10
2018-08-27T13:27:56.801Z,41.00
2018-08-27T13:30:24.568Z,38.60
2018-08-27T13:32:52.089Z,39.90
2018-08-27T13:35:19.709Z,40.40
2018-08-27T13:37:47.345Z,39.30
2018-08-27T13:40:15.072Z,40.20
2018-08-27T13:42:43.592Z,40.20
2018-08-27T13:45:11.222Z,41.80
2018-08-27T13:47:38.856Z,39.10
2018-08-27T13:50:06.553Z,38.10
2018-08-27T13:52:34.143Z,37.70
2018-08-27T13:55:01.764Z,36.90
2018-08-27T13:57:29.392Z,40.00
2018-08-27T13:59:57.080Z,38.30
2018-08-27T14:02:24.638Z,36.30
2018-08-27T14:04:52.285Z,37.30
2018-08-27T14:07:20.914Z,37.60
2018-08-27T14:09:49.554Z,37.70
2018-08-27T14:12:18.194Z,35.00
2018-08-27T14:14:45.849Z,36.00
2018-08-27T14:17:13.438Z,35.70
2018-08-27T14:19:41.217Z,36.30
2018-08-27T14:22:08.740Z,36.30
2018-08-27T14:24:37.372Z,36.50
2018-08-27T14:27:05.033Z,37.80
2018-08-27T14:29:32.649Z,36.20
2018-08-27T14:32:00.249Z,37.00
2018-08-27T14:34:27.894Z,37.90
2018-08-27T14:36:55.476Z,38.30
2018-08-27T14:39:23.105Z,38.80
2018-08-27T14:41:50.729Z,40.60
2018-08-27T14:44:19.400Z,39.50
2018-08-27T14:46:46.997Z,40.00
2018-08-27T14:49:14.604Z,41.50
2018-08-27T14:51:42.224Z,39.90
2018-08-27T14:54:09.853Z,42.10
2018-08-27T14:56:37.497Z,45.90
2018-08-27T14:59:05.191Z,43.20
2018-08-27T15:01:32.808Z,43.20
2018-08-27T15:04:01.112Z,46.30
2018-08-27T15:06:28.740Z,44.30
2018-08-27T15:08:56.415Z,45.00
2018-08-27T15:11:24.046Z,47.50
2018-08-27T15:13:51.664Z,49.20
2018-08-27T15:16:19.281Z,49.40
2018-08-27T15:18:46.940Z,49.50
2018-08-27T15:21:14.546Z,49.40
2018-08-27T15:23:44.213Z,49.70
2018-08-27T15:26:11.880Z,51.80
2018-08-27T15:28:39.494Z,51.70
2018-08-27T15:31:07.109Z,52.30
2018-08-27T15:33:34.729Z,52.10
2018-08-27T15:36:02.460Z,53.40
2018-08-27T15:38:30.157Z,51.70
2018-08-27T15:40:57.723Z,53.70
2018-08-27T15:43:25.370Z,54.10
2018-08-27T15:45:58.833Z,55.40
2018-08-27T15:48:26.450Z,55.30
2018-08-27T15:50:54.286Z,54.70
2018-08-27T15:53:21.814Z,56.60
2018-08-27T15:55:49.521Z,56.70
2018-08-27T15:58:17.144Z,56.90
2018-08-27T16:00:44.765Z,56.40
2018-08-27T16:03:12.404Z,58.20
2018-08-27T16:05:41.040Z,57.20
2018-08-27T16:08:08.648Z,57.90
2018-08-27T16:10:36.284Z,59.40
2018-08-27T16:13:03.937Z,59.10
2018-08-27T16:15:31.557Z,58.90
2018-08-27T16:17:59.221Z,59.00
2018-08-27T16:20:26.792Z,59.20
2018-08-27T16:22:54.488Z,60.00
2018-08-27T16:25:22.188Z,59.40
2018-08-27T16:27:49.837Z,59.50
2018-08-27T16:30:17.522Z,60.40
2018-08-27T16:32:45.144Z,61.60
2018-08-27T16:35:12.744Z,61.90
2018-08-27T16:37:40.412Z,63.70
2018-08-27T16:40:08.098Z,63.90
2018-08-27T16:42:35.728Z,63.80
2018-08-27T16:45:03.393Z,64.20
2018-08-27T16:47:30.995Z,65.40
2018-08-27T16:49:58.592Z,65.60
2018-08-27T16:52:26.277Z,66.70
2018-08-27T16:54:53.921Z,68.40
2018-08-27T16:57:21.544Z,67.80
2018-08-27T16:59:49.216Z,69.10
2018-08-27T17:02:16.840Z,69.10
2018-08-27T17:04:45.488Z,69.90
2018-08-27T17:07:13.189Z,70.60
2018-08-27T17:09:40.813Z,70.00
2018-08-27T17:12:08.497Z,71.00
2018-08-27T17:14:36.177Z,72.00
2018-08-27T17:17:03.968Z,71.50
2018-08-27T17:19:31.687Z,71.70
2018-08-27T17:21:59.408Z,72.40
2018-08-27T17:24:27.162Z,73.10
2018-08-27T17:26:54.898Z,73.30
2018-08-27T17:29:22.666Z,74.20
2018-08-27T17:31:50.418Z,74.20
2018-08-27T17:34:19.387Z,75.00
2018-08-27T17:36:47.672Z,74.20
2018-08-27T17:39:15.411Z,74.70
2018-08-27T17:41:44.180Z,76.10
2018-08-27T17:44:11.822Z,74.70
2018-08-27T17:46:39.527Z,75.00
2018-08-27T17:49:07.126Z,76.30
2018-08-27T17:51:34.876Z,78.20
2018-08-27T17:54:02.576Z,78.30
2018-08-27T17:56:30.390Z,79.10
2018-08-27T17:58:58.157Z,80.00
2018-08-27T18:01:27.454Z,80.80
2018-08-27T18:03:55.321Z,81.20
2018-08-27T18:06:22.982Z,82.40
2018-08-27T18:08:50.634Z,82.60
2018-08-27T18:11:18.240Z,82.70
2018-08-27T18:13:46.135Z,83.80
2018-08-27T18:16:13.827Z,84.10
2018-08-27T18:18:41.473Z,84.10
2018-08-27T18:21:09.105Z,83.90
2018-08-27T18:23:36.777Z,84.60
2018-08-27T18:26:04.464Z,88.40
2018-08-27T18:28:32.192Z,89.40
2018-08-27T18:30:59.861Z,87.20
2018-08-27T18:33:27.468Z,88.60
2018-08-27T18:35:55.100Z,87.40
2018-08-27T18:38:22.748Z,87.30
2018-08-27T18:40:50.417Z,88.30
2018-08-27T18:43:18.080Z,89.10
2018-08-27T18:45:45.682Z,88.20
2018-08-27T18:48:13.301Z,87.70
2018-08-27T18:50:40.924Z,88.80
2018-08-27T18:53:08.529Z,89.70
2018-08-27T18:55:36.174Z,90.10
2018-08-27T18:58:03.797Z,90.70
2018-08-27T19:00:31.435Z,90.70
2018-08-27T19:02:59.084Z,89.20
2018-08-27T19:05:26.728Z,88.70
2018-08-27T19:07:54.332Z,90.10
2018-08-27T19:10:21.961Z,90.10
2018-08-27T19:12:49.684Z,89.20
2018-08-27T19:15:17.267Z,90.00
2018-08-27T19:17:44.948Z,90.10
2018-08-27T19:20:12.553Z,90.40
2018-08-27T19:22:40.176Z,90.50
2018-08-27T19:25:07.870Z,91.40
2018-08-27T19:27:36.541Z,92.20
2018-08-27T19:30:04.245Z,92.40
2018-08-27T19:32:32.008Z,93.30
2018-08-27T19:35:00.733Z,93.90
2018-08-27T19:37:28.582Z,93.30
2018-08-27T19:39:56.030Z,93.20
2018-08-27T19:42:23.665Z,93.10
2018-08-27T19:44:51.285Z,93.60
2018-08-27T19:47:18.936Z,94.00
2018-08-27T19:49:46.573Z,94.60
2018-08-27T19:52:15.247Z,95.30
2018-08-27T19:54:42.869Z,95.80
2018-08-27T19:57:10.586Z,96.40
2018-08-27T19:59:38.208Z,97.00
2018-08-27T20:02:05.895Z,97.60
2018-08-27T20:04:33.504Z,98.30
2018-08-27T20:07:01.135Z,98.70
2018-08-27T20:09:28.752Z,99.10
2018-08-27T20:11:56.404Z,99.90
2018-08-27T20:14:24.063Z,99.90
2018-08-27T20:16:51.742Z,99.90
2018-08-27T20:19:19.438Z,99.90
2018-08-27T20:21:47.077Z,99.90
2018-08-27T20:24:14.708Z,99.90
2018-08-27T20:26:42.336Z,99.90
2018-08-27T20:29:09.961Z,99.90
2018-08-27T20:31:37.597Z,99.90
2018-08-27T20:34:05.269Z,99.90
2018-08-27T20:36:32.977Z,99.90
2018-08-27T20:39:00.658Z,99.90
2018-08-27T20:41:28.245Z,99.90
2018-08-27T20:43:55.844Z,99.90
2018-08-27T20:46:27.015Z,99.90
2018-08-27T20:48:54.629Z,99.90
2018-08-27T20:51:37.165Z,99.90
2018-08-27T20:56:51.118Z,99.90
2018-08-27T20:59:20.724Z,99.90
2018-08-27T21:01:48.360Z,99.90
2018-08-27T21:04:18.363Z,99.90
2018-08-27T21:06:48.983Z,99.90
2018-08-27T21:09:20.612Z,99.90
2018-08-27T21:11:48.240Z,99.90
2018-08-27T21:15:24.142Z,99.90
2018-08-27T21:18:01.584Z,99.90
2018-08-27T21:20:29.286Z,99.90
2018-08-27T21:22:59.972Z,99.90
2018-08-27T21:25:31.263Z,99.90
2018-08-27T21:27:58.873Z,99.90
2018-08-27T21:30:30.853Z,99.90
2018-08-27T21:32:59.568Z,99.90
2018-08-27T21:35:27.213Z,99.90
2018-08-27T21:37:58.365Z,99.90
2018-08-27T21:40:26.038Z,99.90
2018-08-27T21:42:53.683Z,99.90
2018-08-27T21:45:23.810Z,99.90
2018-08-27T21:47:54.257Z,99.90
2018-08-27T21:50:21.881Z,99.90
2018-08-27T21:52:53.296Z,99.90
2018-08-27T21:55:20.941Z,99.90
2018-08-27T21:57:50.801Z,99.90
2018-08-27T22:00:18.457Z,99.90
2018-08-27T22:02:53.732Z,99.90
2018-08-27T22:05:23.529Z,99.90
2018-08-27T22:07:51.164Z,99.90
2018-08-27T22:10:19.836Z,99.90
2018-08-27T22:12:47.552Z,99.90
2018-08-27T22:15:15.220Z,99.90
2018-08-27T22:17:42.855Z,99.90
2018-08-27T22:20:10.488Z,99.90
2018-08-27T22:22:38.093Z,99.90
2018-08-27T22:25:05.920Z,99.90
2018-08-27T22:27:34.532Z,99.90
2018-08-27T22:30:02.482Z,99.90
2018-08-27T22:32:30.101Z,99.90
2018-08-27T22:34:57.744Z,99.90
2018-08-27T22:37:25.362Z,99.90
2018-08-27T22:39:55.103Z,99.90
2018-08-27T22:42:22.712Z,99.90
2018-08-27T22:44:50.340Z,99.90
2018-08-27T22:47:17.992Z,99.90
2018-08-27T22:49:45.613Z,99.90
2018-08-27T22:52:13.256Z,99.90
2018-08-27T22:54:40.900Z,99.90
2018-08-27T22:57:08.653Z,99.90
2018-08-27T22:59:36.339Z,99.90
2018-08-27T23:02:04.113Z,99.90
2018-08-27T23:04:37.462Z,99.90
2018-08-27T23:07:05.198Z,99.90
2018-08-27T23:09:32.917Z,99.90
2018-08-27T23:12:00.529Z,99.90
2018-08-27T23:14:28.140Z,99.90
2018-08-27T23:16:55.832Z,99.90
2018-08-27T23:19:23.441Z,99.90
2018-08-27T23:21:51.033Z,99.90
2018-08-27T23:24:18.666Z,99.90
2018-08-27T23:26:47.308Z,99.90
2018-08-27T23:29:14.929Z,99.90
2018-08-27T23:31:42.588Z,99.90
2018-08-27T23:34:10.204Z,99.90
2018-08-27T23:36:37.813Z,99.90
2018-08-27T23:39:05.801Z,99.90
2018-08-27T23:41:33.388Z,99.90
2018-08-27T23:44:00.987Z,99.90
2018-08-27T23:46:28.648Z,99.90
2018-08-27T23:48:56.261Z,99.90
2018-08-27T23:51:23.917Z,99.90
2018-08-27T23:53:51.553Z,99.90
2018-08-27T23:56:19.147Z,99.90
2018-08-27T23:58:46.770Z,99.90
